Time;durP1;ratioP1;P1;durP2;ratioP2;P2;SDS_P1;SDS_P2;PMS_P1;PMS_P2;Temp;Humidity;BMP_temperature;BMP_pressure;BME280_temperature;BME280_humidity;BME280_pressure;Samples;Min_cycle;Max_cycle;Signal;HPM_P1;HPM_P2
2023/01/20 00:02:15;;;;;;;38.70;20.45;;;;;;;5.96;82.13;100715.22;1769190;81;21269;-57
2023/01/20 00:05:21;;;;;;;33.67;18.70;;;;;;;5.98;82.17;100725.46;1745165;81;21417;-57
2023/01/20 00:08:28;;;;;;;33.75;19.82;;;;;;;6.01;82.20;100733.82;1768628;80;21197;-57
2023/01/20 00:11:34;;;;;;;35.25;18.77;;;;;;;6.03;82.19;100729.12;1769435;80;21182;-57
2023/01/20 00:14:39;;;;;;;36.23;18.65;;;;;;;6.03;82.17;100728.63;1769222;80;21213;-56
2023/01/20 00:17:46;;;;;;;37.90;19.45;;;;;;;6.05;82.19;100732.56;1770734;80;21174;-56
2023/01/20 00:20:52;;;;;;;37.23;20.55;;;;;;;6.07;82.15;100735.48;1769270;81;21320;-56
2023/01/20 00:23:59;;;;;;;36.68;19.82;;;;;;;6.08;82.14;100726.36;1769594;80;21342;-57
2023/01/20 00:27:06;;;;;;;33.95;19.95;;;;;;;6.09;82.13;100723.12;1769336;80;21312;-57
2023/01/20 00:30:14;;;;;;;34.55;19.98;;;;;;;6.08;82.14;100735.87;1745323;81;21304;-57
2023/01/20 00:33:20;;;;;;;35.28;18.62;;;;;;;6.08;82.16;100725.49;1769600;80;21158;-57
2023/01/20 00:36:26;;;;;;;31.23;18.00;;;;;;;6.09;82.22;100728.55;1745720;81;21209;-57
2023/01/20 00:39:32;;;;;;;31.97;18.50;;;;;;;6.14;82.25;100739.03;1769274;80;21304;-57
2023/01/20 00:42:38;;;;;;;30.72;18.60;;;;;;;6.15;82.26;100741.62;1769508;80;21399;-57
2023/01/20 00:45:44;;;;;;;28.30;17.37;;;;;;;6.16;82.28;100747.89;1769710;80;21337;-56
2023/01/20 00:48:51;;;;;;;34.35;18.73;;;;;;;6.16;82.30;100745.17;1769506;81;21225;-57
2023/01/20 00:51:57;;;;;;;32.63;19.62;;;;;;;6.14;82.23;100743.95;1769394;81;21177;-57
2023/01/20 00:55:03;;;;;;;33.60;18.37;;;;;;;6.12;82.18;100761.41;1769693;80;21193;-56
2023/01/20 00:58:09;;;;;;;30.72;18.73;;;;;;;6.13;82.22;100763.98;1769502;80;21178;-57
2023/01/20 01:01:17;;;;;;;30.30;18.52;;;;;;;6.15;82.28;100754.34;1769586;80;21193;-56
2023/01/20 01:04:25;;;;;;;35.35;18.65;;;;;;;6.14;82.18;100764.86;1769536;80;21229;-57
2023/01/20 01:07:33;;;;;;;36.70;19.25;;;;;;;6.16;82.17;100764.20;1769528;80;21256;-57
2023/01/20 01:10:39;;;;;;;32.48;20.25;;;;;;;6.16;82.06;100773.22;1768436;80;21194;-57
2023/01/20 01:13:44;;;;;;;33.35;20.80;;;;;;;6.14;81.96;100771.12;1745200;81;21217;-58
2023/01/20 01:16:51;;;;;;;31.68;19.00;;;;;;;6.12;81.96;100769.05;1769317;81;21197;-56
2023/01/20 01:19:59;;;;;;;33.53;18.87;;;;;;;6.13;81.98;100763.12;1769665;81;21351;-57
2023/01/20 01:23:04;;;;;;;33.42;19.85;;;;;;;6.11;81.98;100774.12;1769507;81;21222;-57
2023/01/20 01:26:09;;;;;;;36.53;19.48;;;;;;;6.12;82.03;100779.08;1769480;81;21210;-56
2023/01/20 01:29:14;;;;;;;35.10;19.70;;;;;;;6.11;82.03;100782.28;1769117;81;21222;-57
2023/01/20 01:32:20;;;;;;;35.23;18.87;;;;;;;6.12;82.01;100787.23;1742311;81;21206;-58
2023/01/20 01:35:26;;;;;;;38.25;20.32;;;;;;;6.12;82.02;100778.55;1769412;80;21257;-56
2023/01/20 01:38:31;;;;;;;41.42;21.02;;;;;;;6.13;81.99;100781.66;1769434;81;21277;-57
2023/01/20 01:41:36;;;;;;;35.98;19.82;;;;;;;6.10;81.84;100784.66;1745561;81;21186;-57
2023/01/20 01:44:43;;;;;;;32.98;19.65;;;;;;;6.06;81.76;100785.91;1769190;80;21186;-57
2023/01/20 01:48:02;;;;;;;37.50;21.00;;;;;;;6.02;81.79;100784.48;1769468;80;21193;-56
2023/01/20 01:51:21;;;;;;;31.97;18.75;;;;;;;6.02;81.88;100783.12;1769527;80;21177;-57
2023/01/20 01:54:30;;;;;;;38.28;19.92;;;;;;;6.01;81.90;100784.09;1769469;80;21204;-57
2023/01/20 01:57:37;;;;;;;37.23;20.10;;;;;;;6.00;81.83;100783.74;1769253;80;21201;-57
2023/01/20 02:00:42;;;;;;;37.35;21.65;;;;;;;5.98;81.82;100785.73;1769418;81;21225;-57
2023/01/20 02:03:53;;;;;;;36.28;20.55;;;;;;;5.96;81.73;100782.31;1769453;81;21202;-57
2023/01/20 02:07:10;;;;;;;37.35;21.00;;;;;;;5.91;81.63;100787.29;1769943;80;21236;-57
2023/01/20 02:10:16;;;;;;;41.50;22.17;;;;;;;5.85;81.57;100775.09;1768334;79;21190;-57
2023/01/20 02:13:21;;;;;;;37.13;19.85;;;;;;;5.80;81.57;100789.55;1769445;80;21237;-55
2023/01/20 02:16:43;;;;;;;37.23;20.12;;;;;;;5.76;81.61;100779.09;1769457;81;21226;-56
2023/01/20 02:20:10;;;;;;;37.48;19.45;;;;;;;5.72;81.67;100777.66;1769459;81;21742;-57
2023/01/20 02:23:58;;;;;;;40.12;21.15;;;;;;;5.72;81.73;100771.70;1769341;81;21190;-56
2023/01/20 02:27:26;;;;;;;42.13;20.70;;;;;;;5.69;81.64;100776.58;1769743;80;21220;-57
2023/01/20 02:30:59;;;;;;;37.20;20.95;;;;;;;5.66;81.74;100772.25;1769344;81;21246;-57
2023/01/20 02:34:16;;;;;;;42.30;21.33;;;;;;;5.63;81.70;100768.94;1769731;80;21206;-58
2023/01/20 02:37:21;;;;;;;35.25;21.12;;;;;;;5.63;81.73;100768.94;1737221;80;21236;-56
2023/01/20 02:40:37;;;;;;;39.10;22.13;;;;;;;5.61;81.64;100765.52;1769239;81;21232;-57
2023/01/20 02:44:04;;;;;;;44.08;22.22;;;;;;;5.56;81.57;100785.42;1769442;81;21191;-57
2023/01/20 02:47:29;;;;;;;43.68;22.77;;;;;;;5.51;81.51;100787.68;1769384;80;21190;-57
2023/01/20 02:50:46;;;;;;;42.23;22.10;;;;;;;5.47;81.52;100793.03;1745589;80;21241;-58
2023/01/20 02:53:58;;;;;;;42.10;22.70;;;;;;;5.44;81.49;100793.30;1769797;80;21225;-56
2023/01/20 02:57:03;;;;;;;48.50;22.67;;;;;;;5.37;81.41;100790.25;1769789;80;21229;-57
2023/01/20 03:00:25;;;;;;;40.08;23.18;;;;;;;5.31;81.38;100804.84;1769906;80;21178;-56
2023/01/20 03:03:39;;;;;;;40.25;21.42;;;;;;;5.26;81.41;100788.09;1769533;79;21244;-57
2023/01/20 03:06:48;;;;;;;39.53;21.97;;;;;;;5.22;81.41;100793.41;1770181;80;21205;-58
2023/01/20 03:09:57;;;;;;;42.23;23.95;;;;;;;5.19;81.43;100792.31;1768998;81;21217;-55
2023/01/20 03:13:30;;;;;;;42.08;23.55;;;;;;;5.17;81.47;100790.25;1735641;82;21219;-57
2023/01/20 03:16:35;;;;;;;41.30;22.65;;;;;;;5.16;81.50;100796.16;1735630;82;21208;-57
2023/01/20 03:19:42;;;;;;;47.35;26.10;;;;;;;5.15;81.50;100805.80;1735433;81;21215;-56
2023/01/20 03:22:47;;;;;;;44.98;24.05;;;;;;;5.12;81.48;100804.19;1719308;81;21599;-56
2023/01/20 03:25:40;;;;;;;44.65;24.12;;;;;;;5.09;81.49;100811.75;1735654;82;21231;-58
2023/01/20 03:28:47;;;;;;;42.05;23.57;;;;;;;5.07;81.51;100816.44;1735572;82;21192;-56
2023/01/20 03:32:01;;;;;;;42.90;23.65;;;;;;;5.07;81.53;100818.66;1735647;82;21161;-57
2023/01/20 03:35:06;;;;;;;45.35;23.57;;;;;;;5.05;81.49;100812.50;1735637;82;21263;-57
2023/01/20 03:38:12;;;;;;;46.00;25.30;;;;;;;5.02;81.42;100803.75;1717414;82;21690;-57
2023/01/20 03:41:57;;;;;;;45.30;25.02;;;;;;;4.99;81.41;100803.53;1735494;82;21224;-58
2023/01/20 03:45:18;;;;;;;46.15;25.25;;;;;;;4.97;81.44;100807.34;1735898;81;21220;-55
2023/01/20 03:48:37;;;;;;;43.85;24.02;;;;;;;4.95;81.43;100816.13;1735563;82;21244;-56
2023/01/20 03:51:56;;;;;;;41.42;24.05;;;;;;;4.92;81.46;100815.88;1735529;82;21201;-56
2023/01/20 03:55:18;;;;;;;46.02;24.43;;;;;;;4.92;81.57;100824.50;1735413;82;21297;-57
2023/01/20 03:58:28;;;;;;;42.23;23.83;;;;;;;4.94;81.61;100821.17;1736391;82;21232;-56
2023/01/20 04:01:44;;;;;;;43.68;24.57;;;;;;;4.95;81.67;100833.25;1739304;82;21188;-57
2023/01/20 04:04:51;;;;;;;42.53;24.30;;;;;;;4.97;81.73;100832.63;1736624;81;21274;-55
2023/01/20 04:07:57;;;;;;;45.23;24.43;;;;;;;4.99;81.80;100847.42;1737270;82;21196;-57
2023/01/20 04:11:02;;;;;;;49.75;25.55;;;;;;;5.04;81.83;100862.83;1718970;82;21216;-55
2023/01/20 04:14:09;;;;;;;43.95;24.63;;;;;;;5.05;81.84;100864.05;1716940;81;21205;-56
2023/01/20 04:17:14;;;;;;;42.67;23.67;;;;;;;5.06;81.79;100866.28;1740254;82;21749;-56
2023/01/20 04:20:19;;;;;;;44.58;24.12;;;;;;;5.05;81.64;100864.53;1739874;81;21232;-56
2023/01/20 04:23:37;;;;;;;43.28;23.80;;;;;;;5.01;81.52;100879.36;1717853;82;21205;-57
2023/01/20 04:26:43;;;;;;;42.05;22.80;;;;;;;5.01;81.53;100891.05;1740189;82;21205;-58
2023/01/20 04:29:48;;;;;;;46.90;24.92;;;;;;;5.02;81.51;100889.21;1740367;81;21233;-58
2023/01/20 04:32:53;;;;;;;43.87;23.47;;;;;;;5.03;81.57;100898.58;1740785;81;21730;-58
2023/01/20 04:35:59;;;;;;;44.73;23.40;;;;;;;5.05;81.57;100895.73;1740737;82;21208;-57
2023/01/20 04:39:05;;;;;;;44.33;23.20;;;;;;;5.06;81.52;100904.27;1742241;81;21750;-56
2023/01/20 04:42:11;;;;;;;40.40;23.22;;;;;;;5.02;81.32;100914.98;1740665;82;21233;-57
2023/01/20 04:45:21;;;;;;;45.50;25.08;;;;;;;4.98;81.22;100910.82;1740336;81;21220;-57
2023/01/20 04:48:27;;;;;;;50.52;24.65;;;;;;;4.92;81.17;100908.59;1740537;82;21758;-56
2023/01/20 04:51:32;;;;;;;46.95;25.45;;;;;;;4.87;81.16;100916.27;1740380;82;21726;-57
2023/01/20 04:54:39;;;;;;;41.58;24.80;;;;;;;4.82;81.07;100906.30;1740522;81;21221;-57
2023/01/20 04:57:45;;;;;;;42.93;23.18;;;;;;;4.77;81.06;100905.32;1741496;81;21228;-57
2023/01/20 05:00:52;;;;;;;44.73;23.95;;;;;;;4.73;81.10;100910.61;1769623;80;21777;-57
2023/01/20 05:03:58;;;;;;;44.83;24.92;;;;;;;4.69;81.10;100917.77;1769838;80;21205;-57
2023/01/20 05:07:04;;;;;;;42.60;25.20;;;;;;;4.63;81.07;100924.55;1771487;79;21205;-57
2023/01/20 05:10:14;;;;;;;43.65;24.67;;;;;;;4.56;80.99;100917.91;1770819;79;21169;-57
2023/01/20 05:13:20;;;;;;;48.75;25.75;;;;;;;4.54;81.04;100930.72;1768851;80;21323;-57
2023/01/20 05:16:30;;;;;;;46.88;25.52;;;;;;;4.51;81.05;100925.55;1770386;80;21177;-56
2023/01/20 05:19:33;;;;;;;41.55;23.83;;;;;;;4.50;81.08;100931.97;1770361;80;21264;-56
2023/01/20 05:22:39;;;;;;;52.35;26.95;;;;;;;4.47;81.03;100930.35;1770520;80;21190;-56
2023/01/20 05:25:45;;;;;;;53.60;26.70;;;;;;;4.43;81.03;100932.95;1770537;80;21742;-56
2023/01/20 05:28:51;;;;;;;52.88;26.07;;;;;;;4.44;81.09;100928.37;1771101;80;21185;-57
2023/01/20 05:31:57;;;;;;;48.13;25.97;;;;;;;4.43;81.13;100935.67;1770645;80;21530;-57
2023/01/20 05:35:02;;;;;;;51.83;25.50;;;;;;;4.43;81.14;100932.95;1771295;80;21232;-57
2023/01/20 05:38:08;;;;;;;55.20;27.20;;;;;;;4.44;81.17;100936.51;1771392;80;21221;-57
2023/01/20 05:41:15;;;;;;;44.20;25.88;;;;;;;4.43;81.13;100947.86;1768386;81;21249;-57
2023/01/20 05:44:22;;;;;;;51.45;27.32;;;;;;;4.42;81.13;100939.34;1762985;80;21290;-58
2023/01/20 05:47:30;;;;;;;45.25;25.88;;;;;;;4.42;81.11;100946.12;1769910;80;21390;-57
2023/01/20 05:50:37;;;;;;;47.70;27.30;;;;;;;4.42;81.15;100940.70;1769074;80;21205;-56
2023/01/20 05:53:43;;;;;;;46.90;26.35;;;;;;;4.43;81.21;100953.28;1734716;80;21792;-57
2023/01/20 05:56:51;;;;;;;50.28;28.52;;;;;;;4.44;81.19;100955.48;1745139;81;21376;-58
2023/01/20 05:59:58;;;;;;;49.75;26.23;;;;;;;4.44;81.11;100959.55;1759590;80;21228;-59
2023/01/20 06:03:06;;;;;;;50.52;27.67;;;;;;;4.43;81.08;100964.12;1768386;80;21196;-59
2023/01/20 06:06:14;;;;;;;45.05;26.50;;;;;;;4.42;81.00;100968.31;1719576;82;21216;-60
2023/01/20 06:09:22;;;;;;;49.88;26.87;;;;;;;4.42;81.00;100969.67;1715156;82;21222;-59
2023/01/20 06:12:36;;;;;;;46.48;25.10;;;;;;;4.42;81.01;100963.73;1719615;83;22210;-60
2023/01/20 06:15:42;;;;;;;47.70;26.60;;;;;;;4.45;80.97;100958.10;1719016;81;21225;-61
2023/01/20 06:18:49;;;;;;;46.13;25.77;;;;;;;4.44;80.92;100956.36;1718253;82;21198;-61
2023/01/20 06:21:54;;;;;;;49.63;25.48;;;;;;;4.44;80.89;100950.06;1717211;83;21238;-61
2023/01/20 06:25:03;;;;;;;47.50;25.62;;;;;;;4.45;80.90;100943.19;1718995;82;21228;-59
2023/01/20 06:28:09;;;;;;;59.00;31.40;;;;;;;4.47;80.87;100942.55;1749804;80;21289;-60
2023/01/20 06:31:18;;;;;;;54.93;28.73;;;;;;;4.44;80.75;100939.22;1739540;82;21181;-60
2023/01/20 06:34:23;;;;;;;50.08;27.25;;;;;;;4.45;80.77;100947.25;1739250;81;21242;-59
2023/01/20 06:37:28;;;;;;;51.77;26.27;;;;;;;4.46;80.77;100942.67;1748080;81;21833;-59
2023/01/20 06:40:34;;;;;;;44.50;22.40;;;;;;;4.47;80.81;100941.71;1768362;80;21213;-60
2023/01/20 06:43:41;;;;;;;42.58;24.00;;;;;;;4.46;80.73;100943.55;1769031;79;21339;-60
2023/01/20 06:46:50;;;;;;;40.00;22.00;;;;;;;4.42;80.59;100942.05;1725374;80;21180;-62
2023/01/20 06:49:55;;;;;;;42.67;22.95;;;;;;;4.40;80.67;100951.31;1760329;81;21185;-59
2023/01/20 06:53:01;;;;;;;43.55;23.52;;;;;;;4.37;80.59;100955.14;1742471;79;21217;-59
2023/01/20 06:56:07;;;;;;;42.03;23.32;;;;;;;4.38;80.59;100961.40;1756342;81;21542;-59
2023/01/20 06:59:12;;;;;;;50.48;24.15;;;;;;;4.39;80.66;100959.92;1766881;80;21201;-60
2023/01/20 07:02:23;;;;;;;42.83;22.73;;;;;;;4.39;80.60;100962.63;1749208;81;21586;-59
2023/01/20 07:05:30;;;;;;;40.63;23.20;;;;;;;4.39;80.59;100961.27;1738458;81;21785;-59
2023/01/20 07:08:35;;;;;;;35.58;22.22;;;;;;;4.39;80.54;100961.27;1737618;81;21225;-58
2023/01/20 07:11:41;;;;;;;45.92;22.85;;;;;;;4.37;80.53;100965.98;1767636;79;21212;-59
2023/01/20 07:14:48;;;;;;;40.70;21.93;;;;;;;4.35;80.51;100977.42;1769135;79;21790;-61
2023/01/20 07:17:55;;;;;;;41.18;22.37;;;;;;;4.41;80.70;100980.13;1734208;81;21204;-59
2023/01/20 07:21:03;;;;;;;45.08;23.90;;;;;;;4.46;80.71;100982.85;1679071;84;21964;-60
2023/01/20 07:24:11;;;;;;;38.33;20.90;;;;;;;4.51;80.74;100980.64;1716341;82;21287;-60
2023/01/20 07:27:18;;;;;;;44.75;22.95;;;;;;;4.57;80.79;100977.91;1704448;83;21729;-55
2023/01/20 07:30:24;;;;;;;44.67;22.90;;;;;;;4.67;80.84;100983.46;1704580;82;21208;-60
2023/01/20 07:33:32;;;;;;;42.98;21.35;;;;;;;4.72;80.78;100989.37;1690109;84;21200;-61
2023/01/20 07:36:39;;;;;;;43.80;22.17;;;;;;;4.77;80.70;100982.61;1712906;81;21239;-59
2023/01/20 07:39:47;;;;;;;42.30;23.35;;;;;;;4.83;80.66;100986.66;1730414;81;21228;-61
2023/01/20 07:42:55;;;;;;;41.35;21.95;;;;;;;4.88;80.67;100981.73;1726093;81;21184;-61
2023/01/20 07:46:21;;;;;;;41.23;21.30;;;;;;;4.98;80.66;100994.92;1721236;81;21260;-56
2023/01/20 07:49:29;;;;;;;37.38;19.98;;;;;;;5.05;80.65;100994.77;1731018;78;21312;-58
2023/01/20 07:52:36;;;;;;;40.75;21.20;;;;;;;5.10;80.52;100994.77;1768307;79;22148;-56
2023/01/20 07:55:42;;;;;;;40.12;21.45;;;;;;;5.15;80.43;100988.96;1783357;77;21565;-55
2023/01/20 07:58:49;;;;;;;40.45;21.45;;;;;;;5.15;80.35;100991.20;1780698;80;21220;-55
2023/01/20 08:01:55;;;;;;;39.50;20.27;;;;;;;5.20;80.37;100983.51;1780683;80;21550;-54
2023/01/20 08:05:01;;;;;;;37.25;21.27;;;;;;;5.26;80.41;100990.29;1780871;79;21204;-55
2023/01/20 08:08:07;;;;;;;44.80;21.95;;;;;;;5.32;80.29;100996.56;1758574;81;21188;-56
2023/01/20 08:11:14;;;;;;;36.28;20.00;;;;;;;5.36;80.32;100999.41;1748102;79;22405;-55
2023/01/20 08:14:21;;;;;;;42.48;21.70;;;;;;;5.38;80.30;101001.47;1795038;78;21318;-53
2023/01/20 08:17:29;;;;;;;50.00;23.55;;;;;;;5.42;80.32;100994.30;1794735;78;21785;-60
2023/01/20 08:20:37;;;;;;;42.93;21.65;;;;;;;5.49;80.35;100989.22;1794092;78;21231;-57
2023/01/20 08:23:45;;;;;;;36.83;19.67;;;;;;;5.55;80.30;101002.31;1831915;77;21180;-56
2023/01/20 08:26:50;;;;;;;39.78;21.12;;;;;;;5.59;80.34;100994.25;1803272;78;21348;-56
2023/01/20 08:30:00;;;;;;;35.33;19.67;;;;;;;5.66;80.31;100995.48;1784742;79;21742;-55
2023/01/20 08:33:05;;;;;;;42.78;20.77;;;;;;;5.75;80.43;100996.91;1701986;82;21683;-56
2023/01/20 08:36:19;;;;;;;37.67;19.90;;;;;;;5.82;80.38;100994.05;1739727;82;21247;-56
2023/01/20 08:39:25;;;;;;;44.07;20.77;;;;;;;5.84;80.23;100988.00;1741260;81;21242;-55
2023/01/20 08:42:33;;;;;;;35.80;20.90;;;;;;;5.89;80.30;100988.97;1723612;81;21312;-54
2023/01/20 08:45:42;;;;;;;36.05;20.17;;;;;;;5.99;80.42;100987.20;1718982;81;21546;-55
2023/01/20 08:48:48;;;;;;;41.25;21.93;;;;;;;6.12;80.54;100986.99;1733845;81;21199;-56
2023/01/20 08:51:55;;;;;;;38.88;21.48;;;;;;;6.23;80.53;100988.28;1770966;78;21189;-54
2023/01/20 08:55:05;;;;;;;41.02;21.30;;;;;;;6.30;80.44;100988.09;1779811;80;21224;-56
2023/01/20 08:58:11;;;;;;;39.85;20.27;;;;;;;6.35;80.37;100986.71;1757288;81;21224;-56
2023/01/20 09:01:25;;;;;;;35.90;20.30;;;;;;;6.46;80.51;100985.75;1756798;81;21242;-53
2023/01/20 09:04:32;;;;;;;37.48;19.60;;;;;;;6.59;80.60;100980.47;1757575;81;21279;-53
2023/01/20 09:07:40;;;;;;;45.50;21.12;;;;;;;6.77;80.67;100984.27;1750540;81;21220;-56
2023/01/20 09:10:46;;;;;;;36.73;19.45;;;;;;;6.93;80.69;100980.53;1756266;81;21757;-57
2023/01/20 09:13:54;;;;;;;41.20;21.07;;;;;;;7.06;80.64;100970.27;1734581;81;21464;-55
2023/01/20 09:17:01;;;;;;;37.75;20.08;;;;;;;7.19;80.55;100979.05;1691388;85;21803;-57
2023/01/20 09:20:06;;;;;;;39.00;20.32;;;;;;;7.30;80.52;100972.11;1694860;83;21236;-56
2023/01/20 09:23:15;;;;;;;33.73;18.62;;;;;;;7.41;80.48;100974.71;1715691;82;21749;-56
2023/01/20 09:26:21;;;;;;;44.45;21.90;;;;;;;7.47;80.30;100976.86;1741675;82;21216;-54
2023/01/20 09:29:29;;;;;;;40.03;21.07;;;;;;;7.49;80.14;100974.87;1744987;82;21237;-55
2023/01/20 09:32:35;;;;;;;35.15;20.20;;;;;;;7.48;80.02;100975.84;1738677;81;21209;-54
2023/01/20 09:35:40;;;;;;;38.80;20.37;;;;;;;7.52;80.02;100986.84;1739870;82;21280;-55
2023/01/20 09:46:12;;;;;;;39.75;21.12;;;;;;;7.64;79.99;100995.75;1754403;80;21344;-55
2023/01/20 09:53:05;;;;;;;34.20;20.02;;;;;;;7.82;80.06;100987.20;1776283;76;21350;-58
2023/01/20 09:56:23;;;;;;;36.90;20.82;;;;;;;7.97;80.12;100984.91;1763095;79;21224;-56
2023/01/20 09:59:36;;;;;;;40.08;20.05;;;;;;;8.02;79.94;100982.61;1800923;79;21216;-56
2023/01/20 10:02:42;;;;;;;37.13;20.62;;;;;;;8.10;79.90;100980.89;1801316;79;21193;-58
2023/01/20 10:05:49;;;;;;;35.58;18.75;;;;;;;8.17;79.85;100986.59;1791606;78;21389;-59
2023/01/20 10:09:05;;;;;;;37.30;18.45;;;;;;;8.25;79.83;100986.27;1785525;79;21844;-57
2023/01/20 10:12:38;;;;;;;35.88;19.12;;;;;;;8.32;79.78;100987.91;1771713;79;21184;-57
2023/01/20 10:15:44;;;;;;;35.03;19.10;;;;;;;8.39;79.77;100980.34;1736346;82;21213;-57
2023/01/20 10:19:07;;;;;;;34.50;19.20;;;;;;;8.52;79.89;100984.12;1754206;80;21221;-58
2023/01/20 10:22:31;;;;;;;36.70;18.77;;;;;;;8.52;79.67;100985.48;1797232;79;21372;-58
2023/01/20 10:25:37;;;;;;;34.50;19.03;;;;;;;8.57;79.74;100994.09;1772641;79;21828;-56
2023/01/20 10:28:46;;;;;;;30.10;18.10;;;;;;;8.65;79.73;100986.02;1798979;79;21180;-57
2023/01/20 10:32:02;;;;;;;33.18;18.57;;;;;;;8.74;79.77;100978.30;1797815;79;21628;-57
2023/01/20 10:35:14;;;;;;;35.17;19.60;;;;;;;8.83;79.77;100985.61;1797797;79;21243;-57
2023/01/20 10:38:28;;;;;;;37.55;19.70;;;;;;;8.90;79.67;100978.52;1800122;78;21959;-57
2023/01/20 10:41:54;;;;;;;32.60;18.57;;;;;;;8.82;79.38;100982.01;1805234;79;21185;-57
2023/01/20 10:45:01;;;;;;;34.25;19.42;;;;;;;8.86;79.55;100983.94;1791805;78;21521;-56
2023/01/20 10:48:15;;;;;;;36.30;19.55;;;;;;;8.94;79.58;100978.06;1799329;79;21498;-58
2023/01/20 10:51:48;;;;;;;36.05;20.25;;;;;;;8.97;79.46;100982.37;1806237;79;21272;-56
2023/01/20 10:55:09;;;;;;;38.28;19.42;;;;;;;9.02;79.51;100971.34;1798573;78;22120;-56
2023/01/20 10:58:38;;;;;;;33.40;19.27;;;;;;;9.04;79.35;100972.55;1791706;79;21184;-56
2023/01/20 11:01:44;;;;;;;32.50;18.00;;;;;;;9.09;79.29;100966.13;1793327;79;21196;-56
2023/01/20 11:04:56;;;;;;;32.42;18.35;;;;;;;9.18;79.30;100970.67;1723832;81;21879;-56
2023/01/20 11:08:01;;;;;;;33.28;18.65;;;;;;;9.27;79.19;100964.81;1756001;80;21251;-56
2023/01/20 11:11:14;;;;;;;30.43;18.52;;;;;;;9.30;79.05;100956.30;1762370;79;22259;-57
2023/01/20 11:14:26;;;;;;;33.15;18.67;;;;;;;9.28;78.92;100961.92;1764324;79;21263;-56
2023/01/20 11:17:31;;;;;;;35.55;19.48;;;;;;;9.33;78.99;100951.89;1752075;80;21215;-55
2023/01/20 11:20:37;;;;;;;35.25;20.00;;;;;;;9.38;78.85;100957.27;1791649;79;21189;-55
2023/01/20 11:23:57;;;;;;;33.40;18.50;;;;;;;9.40;78.78;100952.52;1784397;78;21196;-56
2023/01/20 11:27:20;;;;;;;34.55;18.95;;;;;;;9.45;78.77;100952.88;1797200;79;21709;-57
2023/01/20 11:30:36;;;;;;;35.63;18.07;;;;;;;9.54;78.75;100945.64;1778167;79;21562;-57
2023/01/20 11:33:41;;;;;;;31.07;18.05;;;;;;;9.64;78.70;100949.17;1768411;80;21253;-56
2023/01/20 11:36:47;;;;;;;31.60;17.90;;;;;;;9.68;78.68;100951.43;1768029;80;21219;-57
2023/01/20 11:40:05;;;;;;;36.15;19.05;;;;;;;9.74;78.55;100941.22;1771590;78;21752;-57
2023/01/20 11:43:11;;;;;;;29.25;17.27;;;;;;;9.74;78.37;100942.59;1792769;78;21538;-56
2023/01/20 11:46:26;;;;;;;28.62;16.42;;;;;;;9.74;78.30;100937.63;1798526;78;21212;-57
2023/01/20 11:49:32;;;;;;;32.67;18.07;;;;;;;9.74;78.29;100940.36;1807932;78;21223;-58
2023/01/20 11:52:46;;;;;;;32.20;17.40;;;;;;;9.60;78.01;100943.14;1789949;79;21769;-57
2023/01/20 11:56:00;;;;;;;32.50;17.90;;;;;;;9.45;77.82;100935.12;1780332;79;21819;-58
2023/01/20 11:59:10;;;;;;;29.65;17.48;;;;;;;9.41;77.94;100930.12;1799247;78;21217;-55
2023/01/20 12:02:22;;;;;;;29.20;16.97;;;;;;;9.46;78.08;100931.39;1787393;78;21710;-57
2023/01/20 12:05:38;;;;;;;29.40;16.82;;;;;;;9.53;78.08;100932.47;1782022;80;21764;-55
2023/01/20 12:09:05;;;;;;;30.43;16.20;;;;;;;9.63;78.10;100927.80;1748603;80;21558;-57
2023/01/20 12:12:32;;;;;;;30.80;17.85;;;;;;;9.71;78.11;100929.23;1783137;77;21764;-57
2023/01/20 12:15:44;;;;;;;36.00;19.20;;;;;;;9.78;77.85;100941.28;1801376;78;21243;-57
2023/01/20 12:18:58;;;;;;;31.05;17.32;;;;;;;9.86;77.84;100932.28;1772710;79;21184;-56
2023/01/20 12:22:05;;;;;;;31.62;18.27;;;;;;;9.92;77.86;100932.52;1756802;80;21530;-56
2023/01/20 12:25:28;;;;;;;30.62;18.07;;;;;;;10.02;77.85;100937.89;1812190;79;21165;-56
2023/01/20 12:28:58;;;;;;;31.20;18.02;;;;;;;10.05;77.60;100932.94;1745200;79;21277;-57
2023/01/20 12:32:02;;;;;;;31.45;17.12;;;;;;;10.08;77.55;100935.41;1771386;79;21786;-58
2023/01/20 12:35:09;;;;;;;29.20;17.10;;;;;;;10.19;77.47;100932.42;1766075;81;21546;-57
2023/01/20 12:38:14;;;;;;;32.45;17.87;;;;;;;10.21;77.23;100944.04;1748503;80;21212;-57
2023/01/20 12:41:48;;;;;;;33.08;17.48;;;;;;;10.22;77.11;100936.20;1758894;79;21280;-51
2023/01/20 12:45:27;;;;;;;35.30;18.17;;;;;;;10.21;76.96;100944.04;1766102;81;21231;-51
2023/01/20 12:48:51;;;;;;;28.42;17.27;;;;;;;10.19;76.89;100947.97;1737083;82;21191;-51
2023/01/20 12:52:15;;;;;;;38.25;19.55;;;;;;;10.15;76.87;100950.16;1758154;79;21205;-50
2023/01/20 12:55:44;;;;;;;32.95;19.77;;;;;;;10.03;76.67;100952.77;1793063;77;21283;-50
2023/01/20 12:58:57;;;;;;;37.03;21.17;;;;;;;9.92;76.52;100961.72;1745824;82;21208;-51
2023/01/20 13:02:41;;;;;;;34.33;19.77;;;;;;;9.81;76.57;100969.67;1767088;81;21679;-51
2023/01/20 13:06:12;;;;;;;33.30;18.65;;;;;;;9.76;76.46;100962.94;1784922;79;21713;-53
2023/01/20 13:09:59;;;;;;;35.70;18.15;;;;;;;9.71;76.39;100957.95;1754326;80;21209;-52
2023/01/20 13:13:29;;;;;;;35.08;18.45;;;;;;;9.74;76.39;100961.73;1770364;80;21745;-51
2023/01/20 13:16:59;;;;;;;35.88;19.70;;;;;;;9.83;76.47;100968.98;1766991;79;21176;-52
2023/01/20 13:20:06;;;;;;;33.23;18.73;;;;;;;9.83;76.28;100966.25;1772823;80;21213;-51
2023/01/20 13:23:13;;;;;;;38.95;21.00;;;;;;;9.70;76.11;100961.70;1772219;80;21196;-50
2023/01/20 13:26:21;;;;;;;35.65;20.43;;;;;;;9.63;76.03;100969.30;1782592;80;22085;-52
2023/01/20 13:29:50;;;;;;;35.65;19.62;;;;;;;9.59;76.04;100959.20;1743608;82;21264;-51
2023/01/20 13:32:57;;;;;;;41.65;21.50;;;;;;;9.52;76.06;100962.69;1793297;79;21746;-50
2023/01/20 13:36:05;;;;;;;41.35;21.65;;;;;;;9.31;75.71;100966.23;1781622;79;21190;-51
2023/01/20 13:39:49;;;;;;;43.40;22.42;;;;;;;9.13;75.66;100962.59;1786504;80;21790;-51
2023/01/20 13:42:55;;;;;;;43.92;25.75;;;;;;;8.97;75.60;100954.55;1770497;79;21211;-52
2023/01/20 13:46:23;;;;;;;55.95;28.70;;;;;;;8.70;75.37;100960.02;1785112;78;21287;-51
2023/01/20 13:49:53;;;;;;;47.80;25.15;;;;;;;8.47;75.25;100945.50;1729605;80;21232;-51
2023/01/20 13:53:19;;;;;;;41.13;22.45;;;;;;;8.25;75.46;100956.27;1737910;78;21244;-51
2023/01/20 13:56:39;;;;;;;40.80;21.20;;;;;;;8.12;75.57;100949.39;1825043;78;21195;-52
2023/01/20 13:59:46;;;;;;;39.38;22.77;;;;;;;8.01;75.71;100954.48;1779988;78;21246;-52
2023/01/20 14:02:55;;;;;;;42.75;21.33;;;;;;;7.91;75.73;100956.88;1787026;79;22163;-51
2023/01/20 14:06:12;;;;;;;41.02;20.80;;;;;;;7.76;75.56;100965.11;1771853;78;21365;-50
2023/01/20 14:09:19;;;;;;;50.12;23.32;;;;;;;7.64;75.63;100967.98;1775601;78;21745;-53
2023/01/20 14:12:24;;;;;;;41.15;22.40;;;;;;;7.52;75.64;100959.59;1742465;82;21248;-53
2023/01/20 14:15:41;;;;;;;38.75;21.23;;;;;;;7.44;75.75;100963.53;1778446;80;21248;-54
2023/01/20 14:18:49;;;;;;;47.00;22.67;;;;;;;7.35;75.69;100973.92;1748122;79;21192;-54
2023/01/20 14:22:04;;;;;;;42.20;20.68;;;;;;;7.16;75.38;100960.76;1751105;80;21275;-53
2023/01/20 14:25:08;;;;;;;42.50;22.00;;;;;;;6.94;75.37;100974.11;1748367;81;21291;-54
2023/01/20 14:28:29;;;;;;;44.98;22.48;;;;;;;6.83;75.52;100981.02;1747065;81;21211;-52
2023/01/20 14:31:42;;;;;;;46.02;21.48;;;;;;;6.76;75.70;100985.76;1747353;81;21543;-53
2023/01/20 14:34:48;;;;;;;43.60;24.00;;;;;;;6.69;75.73;100984.60;1728922;82;21192;-52
2023/01/20 14:37:56;;;;;;;45.10;23.75;;;;;;;6.59;75.65;100993.20;1748141;81;21200;-54
2023/01/20 14:41:03;;;;;;;43.10;23.65;;;;;;;6.51;75.71;100994.38;1747827;81;21762;-53
2023/01/20 14:44:09;;;;;;;62.80;36.23;;;;;;;6.42;75.69;100997.42;1765878;79;21746;-52
2023/01/20 14:47:16;;;;;;;46.60;25.65;;;;;;;6.31;75.58;100997.47;1788749;79;21205;-52
2023/01/20 14:50:23;;;;;;;50.38;25.72;;;;;;;6.18;75.54;101002.28;1780976;80;21227;-54